createdAt,value
2023-02-17T00:02:16.959Z,101013.65
2023-02-17T00:04:50.047Z,101008.68
2023-02-17T00:07:22.623Z,101005.42
2023-02-17T00:09:55.813Z,101000.02
2023-02-17T00:12:29.447Z,100996.91
2023-02-17T00:15:02.848Z,100993.33
2023-02-17T00:17:35.241Z,100997.36
2023-02-17T00:20:09.341Z,100990.80
2023-02-17T00:22:41.770Z,100985.42
2023-02-17T00:25:14.141Z,100954.07
2023-02-17T00:27:47.846Z,100983.66
2023-02-17T00:30:20.731Z,100984.34
2023-02-17T00:32:53.192Z,100984.77
2023-02-17T00:35:26.035Z,100979.98
2023-02-17T00:37:58.503Z,100975.11
2023-02-17T00:40:30.955Z,100968.26
2023-02-17T00:43:03.814Z,100984.19
2023-02-17T00:45:36.392Z,100986.22
2023-02-17T00:48:09.123Z,100983.93
2023-02-17T00:50:41.764Z,100979.55
2023-02-17T00:53:14.547Z,100978.55
2023-02-17T00:55:47.184Z,100960.15
2023-02-17T00:58:19.642Z,100972.94
2023-02-17T01:00:51.991Z,100972.17
2023-02-17T01:03:25.128Z,100971.57
2023-02-17T01:05:58.613Z,100975.05
2023-02-17T01:08:31.276Z,100973.45
2023-02-17T01:11:03.961Z,100970.24
2023-02-17T01:13:38.472Z,100968.89
2023-02-17T01:16:21.597Z,100963.80
2023-02-17T01:18:54.258Z,100958.27
2023-02-17T01:21:29.104Z,100954.50
2023-02-17T01:24:01.181Z,100950.28
2023-02-17T01:26:36.221Z,100948.90
2023-02-17T01:29:10.089Z,100940.38
2023-02-17T01:31:44.677Z,100935.70
2023-02-17T01:34:17.449Z,100924.41
2023-02-17T01:36:50.381Z,100928.46
2023-02-17T01:39:23.057Z,100928.70
2023-02-17T01:41:56.325Z,100924.91
2023-02-17T01:44:33.696Z,100923.40
2023-02-17T01:47:06.106Z,100903.47
2023-02-17T01:49:42.506Z,100912.86
2023-02-17T01:52:19.728Z,100912.63
2023-02-17T01:54:56.648Z,100905.47
2023-02-17T01:57:32.978Z,100898.50
2023-02-17T02:00:05.935Z,100894.98
2023-02-17T02:02:48.915Z,100894.53
2023-02-17T02:05:25.158Z,100890.61
2023-02-17T02:07:58.429Z,100891.56
2023-02-17T02:10:30.892Z,100890.19
2023-02-17T02:13:04.436Z,100889.77
2023-02-17T02:15:49.063Z,100887.89
2023-02-17T02:18:49.146Z,100890.08
2023-02-17T02:21:55.360Z,100884.84
2023-02-17T02:24:38.512Z,100877.87
2023-02-17T02:27:43.572Z,100871.83
2023-02-17T02:31:06.894Z,100871.45
2023-02-17T02:33:46.155Z,100864.17
2023-02-17T02:36:23.218Z,100862.68
2023-02-17T02:38:59.753Z,100860.70
2023-02-17T02:41:35.572Z,100865.53
2023-02-17T02:44:10.926Z,100847.21
2023-02-17T02:46:44.560Z,100855.64
2023-02-17T02:49:17.004Z,100848.99
2023-02-17T02:51:56.539Z,100843.84
2023-02-17T02:54:41.788Z,100840.66
2023-02-17T02:57:39.808Z,100840.39
2023-02-17T03:00:21.877Z,100840.64
2023-02-17T03:02:59.096Z,100837.52
2023-02-17T03:05:39.568Z,100838.92
2023-02-17T03:08:17.035Z,100830.35
2023-02-17T03:10:52.618Z,100833.88
2023-02-17T03:13:25.071Z,100829.15
2023-02-17T03:15:58.663Z,100829.08
2023-02-17T03:18:34.985Z,100830.29
2023-02-17T03:21:13.702Z,100832.45
2023-02-17T03:23:47.430Z,100831.34
2023-02-17T03:26:20.293Z,100831.89
2023-02-17T03:28:52.869Z,100828.50
2023-02-17T03:31:26.002Z,100825.48
2023-02-17T03:33:58.672Z,100820.98
2023-02-17T03:36:31.199Z,100813.52
2023-02-17T03:39:04.020Z,100812.27
2023-02-17T03:41:36.504Z,100812.30
2023-02-17T03:44:09.176Z,100809.58
2023-02-17T03:46:43.011Z,100807.81
2023-02-17T03:49:17.203Z,100802.16
2023-02-17T03:51:50.789Z,100800.23
2023-02-17T03:54:23.262Z,100794.58
2023-02-17T03:56:59.135Z,100779.52
2023-02-17T03:59:32.268Z,100792.88
2023-02-17T04:02:05.369Z,100788.80
2023-02-17T04:04:39.791Z,100782.10
2023-02-17T04:07:14.601Z,100774.61
2023-02-17T04:09:45.404Z,100774.80
2023-02-17T04:12:17.760Z,100776.30
2023-02-17T04:14:50.236Z,100770.38
2023-02-17T04:17:22.673Z,100771.73
2023-02-17T04:19:57.756Z,100766.36
2023-02-17T04:22:30.186Z,100732.66
2023-02-17T04:25:02.703Z,100746.98
2023-02-17T04:27:35.138Z,100760.41
2023-02-17T04:30:12.282Z,100766.55
2023-02-17T04:32:52.681Z,100766.77
2023-02-17T04:35:26.823Z,100751.79
2023-02-17T04:37:59.589Z,100768.19
2023-02-17T04:40:32.578Z,100763.99
2023-02-17T04:43:05.442Z,100761.53
2023-02-17T04:45:39.127Z,100755.79
2023-02-17T04:48:11.601Z,100748.55
2023-02-17T04:50:44.875Z,100728.42
2023-02-17T04:53:17.405Z,100744.23
2023-02-17T04:55:53.188Z,100742.21
2023-02-17T04:58:25.962Z,100731.75
2023-02-17T05:01:01.578Z,100724.46
2023-02-17T05:03:34.012Z,100727.52
2023-02-17T05:06:08.500Z,100723.08
2023-02-17T05:08:43.662Z,100714.53
2023-02-17T05:11:16.118Z,100709.21
2023-02-17T05:13:48.570Z,100707.48
2023-02-17T05:16:21.646Z,100708.55
2023-02-17T05:18:54.061Z,100712.14
2023-02-17T05:21:27.365Z,100714.30
2023-02-17T05:24:00.317Z,100712.89
2023-02-17T05:26:36.599Z,100708.64
2023-02-17T05:29:09.865Z,100708.84
2023-02-17T05:31:42.980Z,100703.52
2023-02-17T05:34:15.710Z,100704.41
2023-02-17T05:36:48.180Z,100697.20
2023-02-17T05:39:21.037Z,100695.23
2023-02-17T05:41:55.882Z,100691.14
2023-02-17T05:44:29.814Z,100691.37
2023-02-17T05:47:02.391Z,100692.47
2023-02-17T05:49:35.310Z,100695.77
2023-02-17T05:52:08.557Z,100687.04
2023-02-17T05:54:41.034Z,100687.71
2023-02-17T05:57:13.925Z,100684.48
2023-02-17T05:59:46.542Z,100689.01
2023-02-17T06:02:19.131Z,100683.02
2023-02-17T06:04:52.061Z,100687.65
2023-02-17T06:07:24.594Z,100667.73
2023-02-17T06:09:58.031Z,100677.87
2023-02-17T06:12:31.557Z,100672.29
2023-02-17T06:15:04.257Z,100672.22
2023-02-17T06:17:36.801Z,100668.78
2023-02-17T06:20:11.686Z,100665.43
2023-02-17T06:22:44.967Z,100669.38
2023-02-17T06:25:17.492Z,100644.08
2023-02-17T06:27:49.929Z,100672.04
2023-02-17T06:30:23.323Z,100668.23
2023-02-17T06:32:56.473Z,100661.70
2023-02-17T06:35:33.622Z,100664.83
2023-02-17T06:38:07.135Z,100664.94
2023-02-17T06:40:42.889Z,100662.47
2023-02-17T06:43:19.834Z,100660.23
2023-02-17T06:45:53.476Z,100657.59
2023-02-17T06:48:29.148Z,100657.52
2023-02-17T06:51:02.622Z,100654.22
2023-02-17T06:53:35.796Z,100644.30
2023-02-17T06:56:09.051Z,100639.29
2023-02-17T06:58:50.824Z,100639.01
2023-02-17T07:01:26.202Z,100641.26
2023-02-17T07:04:00.143Z,100641.93
2023-02-17T07:06:32.692Z,100643.26
2023-02-17T07:09:05.861Z,100649.64
2023-02-17T07:11:38.307Z,100643.83
2023-02-17T07:14:10.830Z,100620.79
2023-02-17T07:16:43.984Z,100641.66
2023-02-17T07:19:16.941Z,100645.05
2023-02-17T07:21:49.915Z,100642.86
2023-02-17T07:24:23.356Z,100635.98
2023-02-17T07:26:56.375Z,100637.08
2023-02-17T07:29:29.831Z,100639.52
2023-02-17T07:32:03.487Z,100639.55
2023-02-17T07:34:36.141Z,100636.31
2023-02-17T07:37:08.913Z,100632.92
2023-02-17T07:39:41.501Z,100615.73
2023-02-17T07:42:14.313Z,100633.55
2023-02-17T07:44:46.821Z,100631.29
2023-02-17T07:47:19.523Z,100627.77
2023-02-17T07:49:52.066Z,100625.55
2023-02-17T07:52:24.485Z,100620.25
2023-02-17T07:54:57.430Z,100606.48
2023-02-17T07:57:30.254Z,100619.45
2023-02-17T08:00:02.765Z,100619.48
2023-02-17T08:02:46.111Z,100612.14
2023-02-17T08:05:19.184Z,100608.56
2023-02-17T08:08:12.682Z,100609.60
2023-02-17T08:11:02.402Z,100609.06
2023-02-17T08:13:35.014Z,100609.55
2023-02-17T08:16:08.222Z,100607.66
2023-02-17T08:18:41.027Z,100606.73
2023-02-17T08:21:13.852Z,100614.52
2023-02-17T08:23:46.366Z,100610.62
2023-02-17T08:26:19.996Z,100607.87
2023-02-17T08:28:52.625Z,100591.94
2023-02-17T08:31:27.822Z,100607.48
2023-02-17T08:34:01.445Z,100605.90
2023-02-17T08:36:34.784Z,100604.94
2023-02-17T08:39:11.311Z,100600.66
2023-02-17T08:41:46.851Z,100594.59
2023-02-17T08:44:22.783Z,100594.27
2023-02-17T08:46:55.742Z,100585.45
2023-02-17T08:49:30.182Z,100589.00
2023-02-17T08:52:03.238Z,100572.16
2023-02-17T08:54:36.513Z,100581.55
2023-02-17T08:57:09.271Z,100581.88
2023-02-17T08:59:42.878Z,100573.81
2023-02-17T09:02:15.627Z,100573.58
2023-02-17T09:04:48.373Z,100573.00
2023-02-17T09:07:21.117Z,100566.21
2023-02-17T09:09:53.661Z,100560.73
2023-02-17T09:12:26.797Z,100555.92
2023-02-17T09:14:59.501Z,100556.05
2023-02-17T09:17:32.290Z,100557.05
2023-02-17T09:20:16.232Z,100553.84
2023-02-17T09:22:55.677Z,100555.71
2023-02-17T09:25:28.534Z,100557.30
2023-02-17T09:28:01.509Z,100553.14
2023-02-17T09:30:34.807Z,100549.86
2023-02-17T09:33:07.464Z,100543.73
2023-02-17T09:35:46.914Z,100542.52
2023-02-17T09:38:19.683Z,100535.22
2023-02-17T09:40:52.716Z,100530.02
2023-02-17T09:43:31.806Z,100515.64
2023-02-17T09:46:11.519Z,100515.33
2023-02-17T09:48:44.384Z,100522.75
2023-02-17T09:51:24.508Z,100522.23
2023-02-17T09:54:06.525Z,100500.68
2023-02-17T09:56:42.680Z,100515.64
2023-02-17T09:59:21.944Z,100515.90
2023-02-17T10:01:55.618Z,100502.96
2023-02-17T10:04:34.129Z,100497.39
2023-02-17T10:07:13.058Z,100477.84
2023-02-17T10:09:53.799Z,100489.04
2023-02-17T10:12:29.626Z,100488.48
2023-02-17T10:15:05.846Z,100489.46
2023-02-17T10:17:42.359Z,100484.92
2023-02-17T10:20:19.353Z,100478.67
2023-02-17T10:22:57.217Z,100460.27
2023-02-17T10:25:43.882Z,100442.89
2023-02-17T10:28:35.784Z,100457.40
2023-02-17T10:31:14.728Z,100468.83
2023-02-17T10:33:55.301Z,100467.58
2023-02-17T10:36:34.388Z,100462.43
2023-02-17T10:39:14.754Z,100457.17
2023-02-17T10:41:52.825Z,100452.05
2023-02-17T10:44:27.117Z,100439.58
2023-02-17T10:46:59.567Z,100434.55
2023-02-17T10:49:35.822Z,100426.92
2023-02-17T10:52:15.007Z,100425.61
2023-02-17T10:54:52.061Z,100414.34
2023-02-17T10:57:27.561Z,100407.13
2023-02-17T11:00:00.088Z,100398.67
2023-02-17T11:02:38.510Z,100398.44
2023-02-17T11:05:21.855Z,100392.38
2023-02-17T11:07:58.860Z,100385.91
2023-02-17T11:10:33.827Z,100377.45
2023-02-17T11:13:20.740Z,100368.24
2023-02-17T11:15:53.409Z,100358.45
2023-02-17T11:18:30.082Z,100352.77
2023-02-17T11:21:10.353Z,100341.89
2023-02-17T11:23:53.716Z,100331.54
2023-02-17T11:26:28.694Z,100324.27
2023-02-17T11:29:12.756Z,100320.20
2023-02-17T11:31:55.178Z,100307.30
2023-02-17T11:34:30.673Z,100296.30
2023-02-17T11:37:16.322Z,100279.99
2023-02-17T11:39:51.007Z,100276.88
2023-02-17T11:42:26.578Z,100263.31
2023-02-17T11:45:00.609Z,100265.15
2023-02-17T11:47:42.130Z,100264.48
2023-02-17T11:50:41.265Z,100237.05
2023-02-17T11:53:29.152Z,100258.36
2023-02-17T11:56:13.261Z,100252.06
2023-02-17T11:59:06.395Z,100250.17
2023-02-17T12:01:56.902Z,100244.80
2023-02-17T12:04:31.946Z,100239.27
2023-02-17T12:07:36.281Z,100235.77
2023-02-17T12:10:18.776Z,100227.48
2023-02-17T12:13:16.966Z,100212.94
2023-02-17T12:16:03.664Z,100188.78
2023-02-17T12:18:50.465Z,100198.85
2023-02-17T12:21:36.050Z,100194.38
2023-02-17T12:24:26.675Z,100183.55
2023-02-17T12:27:11.241Z,100187.98
2023-02-17T12:30:05.528Z,100185.01
2023-02-17T12:32:52.781Z,100181.48
2023-02-17T12:35:28.833Z,100171.17
2023-02-17T12:38:05.441Z,100166.95
2023-02-17T12:40:40.846Z,100167.17
2023-02-17T12:43:25.643Z,100159.54
2023-02-17T12:46:01.336Z,100151.59
2023-02-17T12:48:37.893Z,100144.96
2023-02-17T12:51:13.496Z,100139.07
2023-02-17T12:53:51.420Z,100130.98
2023-02-17T12:56:44.590Z,100112.04
2023-02-17T12:59:21.311Z,100115.08
2023-02-17T13:02:00.657Z,100103.51
2023-02-17T13:04:36.168Z,100098.77
2023-02-17T13:07:28.078Z,100090.34
2023-02-17T13:10:01.421Z,100088.60
2023-02-17T13:12:40.963Z,100070.11
2023-02-17T13:15:28.849Z,100075.19
2023-02-17T13:18:03.557Z,100075.80
2023-02-17T13:20:45.855Z,100067.63
2023-02-17T13:23:36.998Z,100068.14
2023-02-17T13:26:28.401Z,100053.66
2023-02-17T13:29:34.426Z,100046.15
2023-02-17T13:32:09.966Z,100037.27
2023-02-17T13:34:44.829Z,100025.06
2023-02-17T13:37:38.526Z,100018.08
2023-02-17T13:40:38.029Z,100010.48
2023-02-17T13:43:18.040Z,100000.83
2023-02-17T13:45:54.552Z,99998.16
2023-02-17T13:48:30.535Z,99984.11
2023-02-17T13:51:04.963Z,99975.89
2023-02-17T13:53:39.112Z,99977.48
2023-02-17T13:56:24.411Z,99962.37
2023-02-17T13:59:07.957Z,99962.30
2023-02-17T14:01:43.353Z,99954.16
2023-02-17T14:04:26.372Z,99949.64
2023-02-17T14:07:01.429Z,99944.38
2023-02-17T14:09:35.625Z,99935.59
2023-02-17T14:12:20.339Z,99933.36
2023-02-17T14:14:52.916Z,99915.85
2023-02-17T14:17:33.659Z,99922.59
2023-02-17T14:20:07.832Z,99915.55
2023-02-17T14:22:40.432Z,99906.62
2023-02-17T14:25:26.968Z,99905.27
2023-02-17T14:28:00.111Z,99904.55
2023-02-17T14:30:34.716Z,99901.29
2023-02-17T14:33:09.805Z,99899.63
2023-02-17T14:35:53.361Z,99887.25
2023-02-17T14:38:28.527Z,99875.77
2023-02-17T14:41:02.251Z,99872.87
2023-02-17T14:43:35.511Z,99881.22
2023-02-17T14:46:08.451Z,99888.53
2023-02-17T14:48:41.353Z,99888.29
2023-02-17T14:51:16.886Z,99878.44
2023-02-17T14:53:50.114Z,99874.53
2023-02-17T14:56:27.528Z,99867.84
2023-02-17T14:59:00.175Z,99868.36
2023-02-17T15:01:32.719Z,99872.05
2023-02-17T15:04:06.358Z,99868.02
2023-02-17T15:06:42.673Z,99866.84
2023-02-17T15:09:17.970Z,99865.95
2023-02-17T15:11:52.048Z,99867.63
2023-02-17T15:14:24.981Z,99861.43
2023-02-17T15:16:57.434Z,99865.91
2023-02-17T15:19:29.963Z,99856.75
2023-02-17T15:22:04.108Z,99859.06
2023-02-17T15:24:38.232Z,99851.05
2023-02-17T15:27:17.506Z,99845.11
2023-02-17T15:29:49.890Z,99832.07
2023-02-17T15:32:24.172Z,99835.76
2023-02-17T15:34:57.227Z,99845.62
2023-02-17T15:37:29.792Z,99842.58
2023-02-17T15:40:02.552Z,99838.84
2023-02-17T15:42:35.570Z,99818.20
2023-02-17T15:45:11.689Z,99829.44
2023-02-17T15:47:45.526Z,99828.88
2023-02-17T15:50:22.702Z,99831.28
2023-02-17T15:52:55.492Z,99829.17
2023-02-17T15:55:29.490Z,99834.93
2023-02-17T15:58:06.271Z,99835.21
2023-02-17T16:00:40.801Z,99832.91
2023-02-17T16:03:13.674Z,99838.55
2023-02-17T16:05:46.328Z,99834.29
2023-02-17T16:08:19.681Z,99833.18
2023-02-17T16:10:52.441Z,99827.81
2023-02-17T16:13:28.032Z,99822.35
2023-02-17T16:16:01.631Z,99814.04
2023-02-17T16:18:34.350Z,99818.59
2023-02-17T16:21:07.304Z,99817.38
2023-02-17T16:23:40.332Z,99803.70
2023-02-17T16:26:21.425Z,99813.84
2023-02-17T16:28:54.726Z,99800.44
2023-02-17T16:31:27.242Z,99799.03
2023-02-17T16:34:00.534Z,99790.02
2023-02-17T16:36:35.860Z,99782.54
2023-02-17T16:39:18.080Z,99766.95
2023-02-17T16:41:50.824Z,99775.01
2023-02-17T16:44:25.870Z,99777.70
2023-02-17T16:47:00.410Z,99773.70
2023-02-17T16:49:36.086Z,99787.78
2023-02-17T16:52:18.336Z,99797.20
2023-02-17T16:54:50.981Z,99800.69
2023-02-17T16:57:23.788Z,99801.55
2023-02-17T16:59:56.333Z,99796.73
2023-02-17T17:02:31.668Z,99802.34
2023-02-17T17:05:04.595Z,99783.63
2023-02-17T17:07:37.375Z,99799.76
2023-02-17T17:10:16.609Z,99800.52
2023-02-17T17:12:49.968Z,99797.52
2023-02-17T17:15:23.454Z,99799.27
2023-02-17T17:17:59.613Z,99800.69
2023-02-17T17:20:35.090Z,99797.56
2023-02-17T17:23:10.100Z,99798.20
2023-02-17T17:25:46.765Z,99800.27
2023-02-17T17:28:20.954Z,99801.77
2023-02-17T17:30:53.810Z,99802.11
2023-02-17T17:33:26.506Z,99802.74
2023-02-17T17:35:59.108Z,99809.31
2023-02-17T17:38:31.679Z,99805.92
2023-02-17T17:41:05.282Z,99801.31
2023-02-17T17:43:37.755Z,99798.30
2023-02-17T17:46:16.085Z,99795.79
2023-02-17T17:48:50.091Z,99796.90
2023-02-17T17:51:24.460Z,99797.47
2023-02-17T17:53:57.416Z,99789.79
2023-02-17T17:56:32.138Z,99787.88
2023-02-17T17:59:04.590Z,99790.16
2023-02-17T18:01:37.210Z,99781.09
2023-02-17T18:04:10.804Z,99787.88
2023-02-17T18:06:48.673Z,99785.77
2023-02-17T18:09:32.427Z,99786.25
2023-02-17T18:12:09.156Z,99766.63
2023-02-17T18:14:44.407Z,99771.34
2023-02-17T18:17:19.084Z,99768.24
2023-02-17T18:19:55.076Z,99773.73
2023-02-17T18:22:28.324Z,99785.91
2023-02-17T18:25:01.187Z,99772.98
2023-02-17T18:27:40.376Z,99786.33
2023-02-17T18:30:16.143Z,99789.25
2023-02-17T18:32:49.000Z,99787.33
2023-02-17T18:35:22.022Z,99776.51
2023-02-17T18:37:54.606Z,99773.99
2023-02-17T18:40:29.186Z,99779.64
2023-02-17T18:43:01.779Z,99779.44
2023-02-17T18:45:34.891Z,99771.11
2023-02-17T18:48:08.275Z,99759.59
2023-02-17T18:50:40.849Z,99773.90
2023-02-17T18:53:13.367Z,99770.38
2023-02-17T18:55:47.641Z,99784.48
2023-02-17T18:58:21.117Z,99797.23
2023-02-17T19:00:53.898Z,99795.77
2023-02-17T19:03:26.777Z,99800.10
2023-02-17T19:05:59.663Z,99796.37
2023-02-17T19:08:32.415Z,99793.23
2023-02-17T19:11:05.032Z,99783.27
2023-02-17T19:13:38.214Z,99778.41
2023-02-17T19:16:13.536Z,99761.84
2023-02-17T19:18:48.587Z,99756.30
2023-02-17T19:21:20.056Z,99776.62
2023-02-17T19:23:54.236Z,99777.18
2023-02-17T19:26:26.748Z,99771.97
2023-02-17T19:28:59.457Z,99769.39
2023-02-17T19:31:32.362Z,99778.25
2023-02-17T19:34:05.205Z,99790.30
2023-02-17T19:36:38.106Z,99784.33
2023-02-17T19:39:11.435Z,99790.08
2023-02-17T19:41:44.259Z,99799.38
2023-02-17T19:44:18.177Z,99806.06
2023-02-17T19:46:50.833Z,99812.80
2023-02-17T19:49:25.049Z,99879.60
2023-02-17T19:51:57.447Z,99904.39
2023-02-17T19:54:30.166Z,99896.98
2023-02-17T19:57:02.610Z,99889.43
2023-02-17T19:59:36.370Z,99896.23
2023-02-17T20:02:11.767Z,99904.79
2023-02-17T20:04:44.845Z,99900.95
2023-02-17T20:07:17.684Z,99904.81
2023-02-17T20:09:50.214Z,99893.34
2023-02-17T20:12:22.693Z,99904.05
2023-02-17T20:14:57.441Z,99895.59
2023-02-17T20:17:29.988Z,99886.92
2023-02-17T20:20:03.481Z,99898.90
2023-02-17T20:22:36.203Z,99904.89
2023-02-17T20:25:09.664Z,99918.40
2023-02-17T20:27:42.340Z,99906.36
2023-02-17T20:30:17.236Z,99912.58
2023-02-17T20:32:50.954Z,99912.52
2023-02-17T20:35:23.594Z,99900.55
2023-02-17T20:37:56.201Z,99903.95
2023-02-17T20:40:29.121Z,99906.29
2023-02-17T20:43:01.873Z,99900.02
2023-02-17T20:45:34.748Z,99892.75
2023-02-17T20:48:07.705Z,99889.44
2023-02-17T20:50:41.087Z,99882.37
2023-02-17T20:53:14.272Z,99888.27
2023-02-17T20:55:47.419Z,99897.14
2023-02-17T20:58:20.486Z,99894.17
2023-02-17T21:00:53.364Z,99899.03
2023-02-17T21:03:26.087Z,99905.73
2023-02-17T21:05:58.909Z,99906.86
2023-02-17T21:08:32.080Z,99908.30
2023-02-17T21:11:05.111Z,99913.77
2023-02-17T21:13:37.619Z,99926.16
2023-02-17T21:16:14.844Z,99947.60
2023-02-17T21:18:50.604Z,99941.98
2023-02-17T21:21:24.126Z,99948.73
2023-02-17T21:23:57.268Z,99951.52
2023-02-17T21:26:30.277Z,99937.88
2023-02-17T21:29:02.846Z,99954.92
2023-02-17T21:31:36.293Z,99937.20
2023-02-17T21:34:09.155Z,99942.26
2023-02-17T21:36:41.886Z,99940.49
2023-02-17T21:39:14.445Z,99932.02
2023-02-17T21:41:46.991Z,99947.54
2023-02-17T21:44:37.593Z,99948.11
2023-02-17T21:47:10.448Z,99949.15
2023-02-17T21:49:44.041Z,99950.02
2023-02-17T21:52:17.414Z,99944.53
2023-02-17T21:54:50.260Z,99932.16
2023-02-17T21:57:22.696Z,99946.81
2023-02-17T21:59:55.385Z,99957.23
2023-02-17T22:02:27.964Z,99960.13
2023-02-17T22:05:00.478Z,99969.23
2023-02-17T22:07:33.071Z,99977.73
2023-02-17T22:10:07.316Z,99969.58
2023-02-17T22:12:40.308Z,99973.13
2023-02-17T22:15:16.121Z,99970.74
2023-02-17T22:17:48.656Z,99973.63
2023-02-17T22:20:21.614Z,99983.95
2023-02-17T22:22:54.864Z,99984.74
2023-02-17T22:25:28.322Z,99997.45
2023-02-17T22:28:00.972Z,100012.77
2023-02-17T22:30:33.611Z,100000.80
2023-02-17T22:33:06.402Z,100016.42
2023-02-17T22:35:39.816Z,100011.30
2023-02-17T22:38:12.921Z,100010.78
2023-02-17T22:40:47.941Z,100027.23
2023-02-17T22:43:20.428Z,100024.40
2023-02-17T22:46:01.049Z,100013.91
2023-02-17T22:48:35.141Z,100018.95
2023-02-17T22:51:10.593Z,100035.77
2023-02-17T22:53:44.001Z,100029.04
2023-02-17T22:56:17.840Z,100031.05
2023-02-17T22:58:55.438Z,100029.39
2023-02-17T23:01:29.169Z,100028.88
2023-02-17T23:04:02.874Z,100034.40
2023-02-17T23:06:37.683Z,100039.41
2023-02-17T23:09:12.664Z,100048.52
2023-02-17T23:11:54.504Z,100060.44
2023-02-17T23:14:29.431Z,100076.33
2023-02-17T23:17:05.335Z,100072.90
2023-02-17T23:19:38.310Z,100075.87
2023-02-17T23:22:15.919Z,100075.63
2023-02-17T23:24:49.751Z,100051.21
2023-02-17T23:27:22.129Z,100060.16
2023-02-17T23:29:55.108Z,100068.17
2023-02-17T23:32:27.568Z,100078.16
2023-02-17T23:35:01.201Z,100083.08
2023-02-17T23:37:33.616Z,100091.63
2023-02-17T23:40:08.913Z,100097.20
2023-02-17T23:42:41.408Z,100093.80
2023-02-17T23:45:15.055Z,100078.51
2023-02-17T23:47:47.875Z,100098.92
2023-02-17T23:50:20.566Z,100099.02
2023-02-17T23:52:53.673Z,100111.69
2023-02-17T23:55:26.521Z,100114.75
2023-02-17T23:58:02.436Z,100107.89
